Time;durP1;ratioP1;P1;durP2;ratioP2;P2;SDS_P1;SDS_P2;PMS_P1;PMS_P2;Temp;Humidity;BMP_temperature;BMP_pressure;BME280_temperature;BME280_humidity;BME280_pressure;Samples;Min_cycle;Max_cycle;Signal;HPM_P1;HPM_P2
2022/03/08 00:00:27;;;;;;;10.73;4.10;;;0.40;99.90;;;;;;4427494;32;20201;-70
2022/03/08 00:02:54;;;;;;;10.33;4.57;;;0.40;99.90;;;;;;4425717;32;20261;-71
2022/03/08 00:05:22;;;;;;;10.77;4.33;;;0.30;99.90;;;;;;4427743;32;20250;-71
2022/03/08 00:07:49;;;;;;;10.10;4.80;;;0.30;99.90;;;;;;4428038;32;20220;-70
2022/03/08 00:10:17;;;;;;;10.53;4.30;;;0.30;99.90;;;;;;4424498;32;20501;-70
2022/03/08 00:12:48;;;;;;;11.50;4.60;;;0.40;99.90;;;;;;4427202;32;20248;-71
2022/03/08 00:15:24;;;;;;;13.97;4.53;;;0.40;99.90;;;;;;4440789;32;20159;-70
2022/03/08 00:17:53;;;;;;;8.93;4.23;;;0.50;99.90;;;;;;4426686;32;20211;-70
2022/03/08 00:20:19;;;;;;;9.13;3.93;;;0.50;99.90;;;;;;4427555;32;20547;-70
2022/03/08 00:22:47;;;;;;;8.53;4.33;;;0.50;99.90;;;;;;4439904;32;20439;-71
2022/03/08 00:25:15;;;;;;;13.43;4.17;;;0.50;99.90;;;;;;4425942;32;20218;-69
2022/03/08 00:27:45;;;;;;;8.67;4.07;;;0.50;99.90;;;;;;4427236;32;20243;-70
2022/03/08 00:30:15;;;;;;;6.87;3.90;;;0.50;99.90;;;;;;4427569;32;20212;-69
2022/03/08 00:32:42;;;;;;;12.97;4.30;;;0.50;99.90;;;;;;4427789;32;20547;-70
2022/03/08 00:35:10;;;;;;;9.13;4.30;;;0.60;99.90;;;;;;4425977;32;20178;-70
2022/03/08 00:37:37;;;;;;;9.73;4.20;;;0.60;99.90;;;;;;4425650;32;20178;-70
2022/03/08 00:40:06;;;;;;;9.47;3.90;;;0.60;99.90;;;;;;4439531;32;20221;-69
2022/03/08 00:42:33;;;;;;;10.87;4.30;;;0.60;99.90;;;;;;4426575;32;20198;-70
2022/03/08 00:45:01;;;;;;;11.77;3.93;;;0.60;99.90;;;;;;4439641;32;20154;-71
2022/03/08 00:47:28;;;;;;;9.87;4.33;;;0.50;99.90;;;;;;4441081;32;20431;-69
2022/03/08 00:49:54;;;;;;;7.27;4.10;;;0.40;99.90;;;;;;4441602;32;20209;-69
2022/03/08 00:52:21;;;;;;;7.63;4.10;;;0.40;99.90;;;;;;4427231;32;20449;-70
2022/03/08 00:54:48;;;;;;;8.67;4.40;;;0.30;99.90;;;;;;4427315;32;20245;-70
2022/03/08 00:57:15;;;;;;;10.20;4.30;;;0.20;99.90;;;;;;4427065;32;20206;-71
2022/03/08 00:59:42;;;;;;;9.50;4.30;;;0.20;99.90;;;;;;4426783;32;20185;-70
2022/03/08 01:02:09;;;;;;;9.43;4.17;;;0.20;99.90;;;;;;4426540;32;20217;-70
2022/03/08 01:04:36;;;;;;;11.33;4.07;;;0.20;99.90;;;;;;4425386;32;20220;-70
2022/03/08 01:07:06;;;;;;;10.63;4.10;;;0.10;99.90;;;;;;4425059;32;20197;-69
2022/03/08 01:09:33;;;;;;;7.30;3.90;;;0.10;99.90;;;;;;4424973;32;20242;-70
2022/03/08 01:12:00;;;;;;;8.87;4.13;;;0.00;99.90;;;;;;4422561;32;20213;-69
2022/03/08 01:14:27;;;;;;;7.93;3.87;;;0.00;99.90;;;;;;4424743;32;20186;-70
2022/03/08 01:16:54;;;;;;;11.63;4.10;;;0.00;99.90;;;;;;4424398;32;20257;-70
2022/03/08 01:19:21;;;;;;;10.57;4.30;;;0.00;99.90;;;;;;4424899;32;20194;-70
2022/03/08 01:21:48;;;;;;;12.10;4.23;;;-0.10;99.90;;;;;;4422322;32;20194;-69
2022/03/08 01:24:14;;;;;;;7.80;4.17;;;-0.10;99.90;;;;;;4422781;32;20233;-70
2022/03/08 01:26:41;;;;;;;8.33;4.20;;;-0.10;99.90;;;;;;4424667;32;20159;-70
2022/03/08 01:29:08;;;;;;;8.50;4.13;;;-0.20;99.90;;;;;;4424317;32;20220;-70
2022/03/08 01:31:35;;;;;;;9.47;4.30;;;-0.20;99.90;;;;;;4424797;32;20190;-70
2022/03/08 01:34:03;;;;;;;8.70;4.20;;;-0.20;99.90;;;;;;4423719;32;20190;-70
2022/03/08 01:36:30;;;;;;;9.40;4.50;;;-0.30;99.90;;;;;;4424680;32;20178;-70
2022/03/08 01:38:57;;;;;;;7.07;4.10;;;-0.30;99.90;;;;;;4424748;32;20170;-69
2022/03/08 01:41:24;;;;;;;10.20;4.47;;;-0.30;99.90;;;;;;4424144;32;20239;-69
2022/03/08 01:43:50;;;;;;;9.67;4.27;;;-0.40;99.90;;;;;;4424179;32;20198;-69
2022/03/08 01:46:17;;;;;;;9.53;4.00;;;-0.40;99.90;;;;;;4423652;32;20237;-70
2022/03/08 01:48:45;;;;;;;10.10;4.23;;;-0.40;99.90;;;;;;4423500;32;20232;-69
2022/03/08 01:51:13;;;;;;;9.87;4.30;;;-0.50;99.90;;;;;;4423121;32;20468;-69
2022/03/08 01:53:40;;;;;;;8.37;3.77;;;-0.50;99.90;;;;;;4422985;32;20190;-70
2022/03/08 01:56:11;;;;;;;10.30;4.43;;;-0.50;99.90;;;;;;4425397;32;20198;-70
2022/03/08 01:58:38;;;;;;;5.93;4.10;;;-0.50;99.90;;;;;;4422260;32;20229;-71
2022/03/08 02:01:06;;;;;;;9.33;4.27;;;-0.50;99.90;;;;;;4423935;32;20197;-70
2022/03/08 02:03:34;;;;;;;7.43;4.00;;;-0.50;99.90;;;;;;4423571;32;20176;-70
2022/03/08 02:06:01;;;;;;;8.30;4.47;;;-0.50;99.90;;;;;;4418017;32;20198;-70
2022/03/08 02:08:29;;;;;;;11.03;4.60;;;-0.60;99.90;;;;;;4407803;32;20201;-70
2022/03/08 02:10:56;;;;;;;8.70;4.30;;;-0.60;99.90;;;;;;4394552;32;20247;-70
2022/03/08 02:13:25;;;;;;;11.87;5.17;;;-0.60;99.90;;;;;;4395479;32;20229;-71
2022/03/08 02:15:53;;;;;;;9.63;4.80;;;-0.60;99.90;;;;;;4396243;32;20597;-71
2022/03/08 02:18:20;;;;;;;8.67;4.63;;;-0.60;99.90;;;;;;4395094;32;20423;-70
2022/03/08 02:20:47;;;;;;;12.33;4.87;;;-0.60;99.90;;;;;;4396187;32;20221;-70
2022/03/08 02:23:14;;;;;;;10.90;4.40;;;-0.70;99.90;;;;;;4396010;32;20210;-70
2022/03/08 02:25:41;;;;;;;9.83;4.60;;;-0.70;99.90;;;;;;4408636;32;20178;-70
2022/03/08 02:28:09;;;;;;;8.50;4.57;;;-0.70;99.90;;;;;;4396312;32;20178;-70
2022/03/08 02:30:35;;;;;;;12.70;5.27;;;-0.70;99.90;;;;;;4408218;32;20163;-70
2022/03/08 02:33:03;;;;;;;10.40;4.73;;;-0.70;99.90;;;;;;4396244;32;20234;-71
2022/03/08 02:35:31;;;;;;;10.33;5.10;;;-0.70;99.90;;;;;;4399473;32;20186;-70
2022/03/08 02:38:03;;;;;;;9.10;5.20;;;-0.70;99.90;;;;;;4398170;32;20187;-72
2022/03/08 02:40:36;;;;;;;13.23;5.40;;;-0.70;99.90;;;;;;4398160;32;20553;-71
2022/03/08 02:43:05;;;;;;;10.90;5.10;;;-0.60;99.90;;;;;;4397613;32;20251;-70
2022/03/08 02:45:33;;;;;;;10.80;5.70;;;-0.60;99.90;;;;;;4398906;32;20214;-71
2022/03/08 02:48:00;;;;;;;11.33;5.73;;;-0.60;99.90;;;;;;4398742;32;20537;-71
2022/03/08 02:50:27;;;;;;;11.30;5.43;;;-0.60;99.90;;;;;;4398201;32;20190;-71
2022/03/08 02:52:55;;;;;;;14.47;5.97;;;-0.70;99.90;;;;;;4398850;32;20179;-71
2022/03/08 02:55:25;;;;;;;12.70;5.93;;;-0.70;99.90;;;;;;4398699;32;20170;-71
2022/03/08 02:57:53;;;;;;;11.23;5.90;;;-0.70;99.90;;;;;;4398939;32;20501;-73
2022/03/08 03:00:22;;;;;;;10.43;5.83;;;-0.70;99.90;;;;;;4396683;32;20186;-71
2022/03/08 03:02:50;;;;;;;12.33;5.83;;;-0.70;99.90;;;;;;4398588;32;20187;-71
2022/03/08 03:05:17;;;;;;;10.30;5.53;;;-0.70;99.90;;;;;;4398957;32;20220;-71
2022/03/08 03:07:44;;;;;;;13.57;6.23;;;-0.70;99.90;;;;;;4402369;32;20594;-71
2022/03/08 03:10:14;;;;;;;12.33;5.90;;;-0.70;99.90;;;;;;4411943;32;20412;-71
2022/03/08 03:12:41;;;;;;;10.30;6.00;;;-0.70;99.90;;;;;;4413088;32;20590;-71
2022/03/08 03:15:10;;;;;;;10.77;5.90;;;-0.70;99.90;;;;;;4413016;32;20221;-71
2022/03/08 03:17:37;;;;;;;11.50;6.10;;;-0.80;99.90;;;;;;4413753;32;20478;-71
2022/03/08 03:20:06;;;;;;;12.00;6.00;;;-0.80;99.90;;;;;;4412106;32;20253;-71
2022/03/08 03:22:33;;;;;;;12.20;6.13;;;-0.80;99.90;;;;;;4412016;32;20248;-71
2022/03/08 03:25:00;;;;;;;13.93;6.23;;;-0.80;99.90;;;;;;4411952;32;20198;-70
2022/03/08 03:27:27;;;;;;;14.77;6.37;;;-0.80;99.90;;;;;;4426844;32;20411;-70
2022/03/08 03:29:54;;;;;;;13.00;6.40;;;-0.90;99.90;;;;;;4412282;32;20229;-72
2022/03/08 03:32:23;;;;;;;10.80;6.33;;;-0.90;99.90;;;;;;4413433;32;20186;-70
2022/03/08 03:34:50;;;;;;;13.00;6.70;;;-0.90;99.90;;;;;;4413011;32;20184;-71
2022/03/08 03:37:18;;;;;;;15.73;6.63;;;-0.90;99.90;;;;;;4413554;32;20242;-71
2022/03/08 03:39:44;;;;;;;12.10;6.60;;;-0.90;99.90;;;;;;4412688;32;20602;-71
2022/03/08 03:42:11;;;;;;;16.00;6.77;;;-0.90;99.90;;;;;;4411758;32;20182;-71
2022/03/08 03:44:38;;;;;;;14.13;6.57;;;-0.90;99.90;;;;;;4412776;32;20232;-71
2022/03/08 03:47:05;;;;;;;13.17;6.67;;;-0.90;99.90;;;;;;4411755;32;20231;-71
2022/03/08 03:49:32;;;;;;;13.33;6.53;;;-0.90;99.90;;;;;;4413444;32;20211;-71
2022/03/08 03:51:59;;;;;;;14.77;6.53;;;-1.00;99.90;;;;;;4411511;32;20202;-72
2022/03/08 03:54:26;;;;;;;13.07;6.80;;;-1.00;99.90;;;;;;4412491;32;20181;-71
2022/03/08 03:56:53;;;;;;;14.00;6.67;;;-1.00;99.90;;;;;;4425438;32;20162;-72
2022/03/08 03:59:19;;;;;;;13.07;7.00;;;-1.00;99.90;;;;;;4411517;32;20172;-71
2022/03/08 04:01:46;;;;;;;12.13;6.90;;;-1.00;99.90;;;;;;4411628;32;20198;-72
2022/03/08 04:04:15;;;;;;;15.40;7.03;;;-1.00;99.90;;;;;;4411166;32;20521;-71
2022/03/08 04:06:43;;;;;;;12.17;6.90;;;-1.10;99.90;;;;;;4413089;32;20208;-70
2022/03/08 04:09:10;;;;;;;15.13;7.13;;;-1.10;99.90;;;;;;4412356;32;20202;-71
2022/03/08 04:11:36;;;;;;;15.67;7.70;;;-1.10;99.90;;;;;;4424622;32;20185;-71
2022/03/08 04:14:03;;;;;;;14.77;7.07;;;-1.20;99.90;;;;;;4411189;32;20193;-72
2022/03/08 04:16:30;;;;;;;13.17;6.53;;;-1.20;99.90;;;;;;4411451;32;20525;-70
2022/03/08 04:18:57;;;;;;;15.00;7.73;;;-1.10;99.90;;;;;;4413004;32;20245;-70
2022/03/08 04:21:24;;;;;;;12.90;7.03;;;-1.10;99.90;;;;;;4411206;32;20217;-71
2022/03/08 04:23:51;;;;;;;13.87;7.23;;;-1.10;99.90;;;;;;4411441;32;20225;-72
2022/03/08 04:26:18;;;;;;;14.47;7.40;;;-1.10;99.90;;;;;;4412759;32;20166;-71
2022/03/08 04:28:44;;;;;;;13.67;6.80;;;-1.10;99.90;;;;;;4424822;32;20376;-71
2022/03/08 04:31:11;;;;;;;15.33;7.50;;;-1.00;99.90;;;;;;4412622;32;20199;-71
2022/03/08 04:33:38;;;;;;;13.40;7.60;;;-1.00;99.90;;;;;;4412643;32;20186;-71
2022/03/08 04:36:05;;;;;;;14.03;7.83;;;-1.00;99.90;;;;;;4426390;32;20424;-71
2022/03/08 04:38:32;;;;;;;16.47;7.63;;;-1.00;99.90;;;;;;4412830;32;20179;-71
2022/03/08 04:41:02;;;;;;;12.90;7.40;;;-0.90;99.90;;;;;;4411248;32;20216;-71
2022/03/08 04:43:29;;;;;;;17.20;7.90;;;-0.90;99.90;;;;;;4412527;32;20178;-72
2022/03/08 04:45:56;;;;;;;14.30;8.30;;;-0.90;99.90;;;;;;4410567;32;20182;-71
2022/03/08 04:48:23;;;;;;;15.00;7.30;;;-0.90;99.90;;;;;;4411013;32;20208;-71
2022/03/08 04:50:50;;;;;;;16.73;7.70;;;-0.90;99.90;;;;;;4410502;32;20202;-71
2022/03/08 04:53:17;;;;;;;15.67;8.23;;;-0.90;99.90;;;;;;4411085;32;20189;-71
2022/03/08 04:55:44;;;;;;;14.67;7.90;;;-0.90;99.90;;;;;;4412787;32;20236;-70
2022/03/08 04:58:11;;;;;;;15.27;7.90;;;-1.00;99.90;;;;;;4412038;32;20203;-71
2022/03/08 05:00:38;;;;;;;13.97;7.83;;;-1.00;99.90;;;;;;4410106;32;20516;-71
2022/03/08 05:03:05;;;;;;;14.17;7.73;;;-1.00;99.90;;;;;;4411280;32;20436;-71
2022/03/08 05:05:33;;;;;;;13.20;7.50;;;-1.00;99.90;;;;;;4425137;32;20154;-71
2022/03/08 05:08:00;;;;;;;16.27;7.87;;;-1.00;99.90;;;;;;4411457;32;20222;-71
2022/03/08 05:10:27;;;;;;;15.33;7.93;;;-1.00;99.90;;;;;;4410570;32;20308;-71
2022/03/08 05:12:54;;;;;;;15.37;7.87;;;-1.00;99.90;;;;;;4425531;32;20151;-72
2022/03/08 05:15:21;;;;;;;15.70;8.17;;;-1.10;99.90;;;;;;4410517;32;20465;-71
2022/03/08 05:17:48;;;;;;;14.67;7.93;;;-1.10;99.90;;;;;;4411951;32;20197;-71
2022/03/08 05:20:14;;;;;;;18.07;8.57;;;-1.10;99.90;;;;;;4411778;32;20226;-71
2022/03/08 05:22:41;;;;;;;17.57;8.93;;;-1.10;99.90;;;;;;4397162;32;20208;-71
2022/03/08 05:25:09;;;;;;;16.17;9.10;;;-1.10;99.90;;;;;;4410015;32;20234;-70
2022/03/08 05:27:36;;;;;;;19.83;9.13;;;-1.10;99.90;;;;;;4423823;32;20209;-71
2022/03/08 05:30:05;;;;;;;16.67;9.13;;;-1.00;99.90;;;;;;4411283;32;20202;-70
2022/03/08 05:32:32;;;;;;;16.90;8.63;;;-1.00;99.90;;;;;;4410717;32;20189;-71
2022/03/08 05:34:58;;;;;;;16.77;9.40;;;-1.00;99.90;;;;;;4409569;32;20209;-71
2022/03/08 05:37:25;;;;;;;17.73;9.30;;;-1.00;99.90;;;;;;4424956;32;20413;-71
2022/03/08 05:39:52;;;;;;;17.73;9.60;;;-1.00;99.90;;;;;;4411194;32;20219;-71
2022/03/08 05:42:19;;;;;;;16.97;9.50;;;-1.00;99.90;;;;;;4411658;32;20178;-72
2022/03/08 05:44:46;;;;;;;17.70;9.60;;;-0.90;99.90;;;;;;4411485;32;20421;-71
2022/03/08 05:47:12;;;;;;;17.50;9.10;;;-0.90;99.90;;;;;;4411441;32;20198;-72
2022/03/08 05:49:39;;;;;;;16.90;9.57;;;-0.90;99.90;;;;;;4423779;32;20166;-70
2022/03/08 05:52:07;;;;;;;17.27;9.90;;;-0.80;99.90;;;;;;4410510;32;20175;-71
2022/03/08 05:54:33;;;;;;;20.67;10.43;;;-0.70;99.90;;;;;;4411160;32;20207;-71
2022/03/08 05:57:00;;;;;;;20.27;10.20;;;-0.70;99.90;;;;;;4410355;32;20178;-72
2022/03/08 05:59:27;;;;;;;21.93;10.73;;;-0.60;99.90;;;;;;4424174;32;20162;-72
2022/03/08 06:01:54;;;;;;;20.67;10.97;;;-0.60;99.90;;;;;;4423648;32;20198;-71
2022/03/08 06:04:21;;;;;;;20.63;11.13;;;-0.50;99.90;;;;;;4424408;32;20209;-72
2022/03/08 06:06:49;;;;;;;28.50;12.47;;;-0.50;99.90;;;;;;4411385;32;20179;-72
2022/03/08 06:09:17;;;;;;;25.97;12.37;;;-0.40;99.90;;;;;;4409205;32;20243;-73
2022/03/08 06:11:43;;;;;;;24.87;12.70;;;-0.40;99.90;;;;;;4409472;32;20190;-73
2022/03/08 06:14:10;;;;;;;24.27;12.47;;;-0.40;99.90;;;;;;4409738;32;20197;-73
2022/03/08 06:16:37;;;;;;;26.23;12.10;;;-0.30;99.90;;;;;;4411547;32;20182;-74
2022/03/08 06:19:04;;;;;;;23.97;12.27;;;-0.30;99.90;;;;;;4409483;32;20186;-72
2022/03/08 06:21:32;;;;;;;23.53;12.03;;;-0.30;99.90;;;;;;4409416;32;20209;-73
2022/03/08 06:23:58;;;;;;;22.83;11.97;;;-0.40;99.90;;;;;;4423929;32;20507;-72
2022/03/08 06:26:26;;;;;;;24.67;12.70;;;-0.50;99.90;;;;;;4410355;32;20178;-73
2022/03/08 06:28:54;;;;;;;26.20;14.27;;;-0.50;99.90;;;;;;4409570;32;20250;-73
2022/03/08 06:31:21;;;;;;;25.37;12.80;;;-0.50;99.90;;;;;;4411321;32;20224;-71
2022/03/08 06:33:48;;;;;;;24.30;12.50;;;-0.50;99.90;;;;;;4409527;32;20197;-74
2022/03/08 06:36:15;;;;;;;26.00;12.70;;;-0.40;99.90;;;;;;4411148;32;20194;-71
2022/03/08 06:38:42;;;;;;;24.07;11.80;;;-0.40;99.90;;;;;;4409450;32;20197;-72
2022/03/08 06:41:09;;;;;;;24.50;11.13;;;-0.30;99.90;;;;;;4409506;32;20202;-73
2022/03/08 06:43:35;;;;;;;21.27;10.33;;;-0.30;99.90;;;;;;4424047;32;20555;-74
2022/03/08 06:46:02;;;;;;;20.00;10.03;;;-0.30;99.90;;;;;;4410944;32;20445;-73
2022/03/08 06:48:35;;;;;;;17.97;10.07;;;-0.50;99.90;;;;;;4410332;32;20182;-72
2022/03/08 06:51:03;;;;;;;24.20;11.50;;;-0.70;99.90;;;;;;4411173;32;20436;-74
2022/03/08 06:53:30;;;;;;;20.43;11.20;;;-0.60;99.90;;;;;;4409279;32;20198;-72
2022/03/08 06:55:57;;;;;;;23.27;11.63;;;-0.60;99.90;;;;;;4409617;32;20564;-73
2022/03/08 06:58:24;;;;;;;21.83;11.23;;;-0.60;99.90;;;;;;4424305;32;20139;-74
2022/03/08 07:00:51;;;;;;;20.73;10.47;;;-0.50;99.90;;;;;;4424166;32;20151;-74
2022/03/08 07:03:18;;;;;;;19.07;9.80;;;-0.50;99.90;;;;;;4410258;32;20179;-74
2022/03/08 07:05:46;;;;;;;20.00;10.40;;;-0.60;99.90;;;;;;4425472;32;20143;-73
2022/03/08 07:08:13;;;;;;;19.37;9.77;;;-0.50;99.90;;;;;;4411116;32;20229;-75
2022/03/08 07:10:40;;;;;;;16.33;9.53;;;-0.50;99.90;;;;;;4409181;32;20182;-74
2022/03/08 07:13:07;;;;;;;18.97;9.77;;;-0.50;99.90;;;;;;4408701;32;20261;-72
2022/03/08 07:15:34;;;;;;;17.53;9.70;;;-0.40;99.90;;;;;;4409405;32;20197;-74
2022/03/08 07:18:00;;;;;;;18.77;9.90;;;-0.30;99.90;;;;;;4409211;32;20198;-74
2022/03/08 07:20:27;;;;;;;19.43;10.00;;;-0.30;99.90;;;;;;4409878;32;20193;-75
2022/03/08 07:22:54;;;;;;;17.00;9.20;;;-0.10;99.90;;;;;;4411874;32;20190;-76
2022/03/08 07:25:21;;;;;;;16.23;10.00;;;-0.10;99.90;;;;;;4412019;32;20174;-75
2022/03/08 07:27:48;;;;;;;19.20;10.27;;;0.00;99.90;;;;;;4413516;32;20171;-75
2022/03/08 07:30:14;;;;;;;15.57;9.47;;;0.00;99.90;;;;;;4425804;32;20166;-74
2022/03/08 07:32:41;;;;;;;17.70;10.00;;;0.10;99.90;;;;;;4411664;32;20251;-75
2022/03/08 07:35:09;;;;;;;16.57;9.57;;;0.10;99.90;;;;;;4411938;32;20175;-75
2022/03/08 07:37:37;;;;;;;17.37;9.60;;;0.10;99.90;;;;;;4411137;32;20606;-73
2022/03/08 07:40:06;;;;;;;16.97;9.67;;;0.00;99.90;;;;;;4412836;32;20241;-74
2022/03/08 07:42:33;;;;;;;17.20;9.73;;;0.00;99.90;;;;;;4413119;32;20205;-73
2022/03/08 07:45:00;;;;;;;15.70;9.93;;;0.10;99.90;;;;;;4411864;32;20241;-75
2022/03/08 07:47:27;;;;;;;17.23;9.70;;;0.20;99.90;;;;;;4412371;32;20213;-75
2022/03/08 07:49:54;;;;;;;17.47;9.53;;;0.30;99.90;;;;;;4412229;32;20179;-75
2022/03/08 07:52:21;;;;;;;15.33;8.90;;;0.20;99.90;;;;;;4411423;32;20221;-74
2022/03/08 07:54:47;;;;;;;17.47;9.33;;;0.20;99.90;;;;;;4413345;32;20170;-74
2022/03/08 07:57:14;;;;;;;18.70;9.63;;;0.20;99.90;;;;;;4425363;32;20171;-73
2022/03/08 07:59:41;;;;;;;14.53;9.47;;;0.30;99.90;;;;;;4410826;32;20250;-75
2022/03/08 08:02:08;;;;;;;18.17;9.63;;;0.30;99.90;;;;;;4412654;32;20212;-75
2022/03/08 08:04:36;;;;;;;16.63;8.93;;;0.20;99.90;;;;;;4425722;32;20145;-75
2022/03/08 08:07:03;;;;;;;15.80;8.90;;;0.20;99.90;;;;;;4412562;32;20214;-75
2022/03/08 08:09:30;;;;;;;17.20;10.00;;;0.20;99.90;;;;;;4411370;32;20338;-74
2022/03/08 08:11:57;;;;;;;17.67;9.87;;;0.30;99.90;;;;;;4410984;32;20169;-75
2022/03/08 08:14:24;;;;;;;17.70;10.60;;;0.40;99.90;;;;;;4398001;32;20206;-75
2022/03/08 08:16:51;;;;;;;18.03;10.67;;;0.40;99.90;;;;;;4409293;32;20175;-74
2022/03/08 08:19:18;;;;;;;18.33;9.90;;;0.40;99.90;;;;;;4408834;32;20182;-74
2022/03/08 08:21:45;;;;;;;17.53;9.97;;;0.40;99.90;;;;;;4419149;32;20500;-73
2022/03/08 08:24:12;;;;;;;18.67;10.80;;;0.40;99.90;;;;;;4439866;32;20181;-77
2022/03/08 08:26:38;;;;;;;20.80;10.73;;;0.50;99.90;;;;;;4425518;32;20278;-73
2022/03/08 08:29:05;;;;;;;20.03;11.20;;;0.60;99.90;;;;;;4441134;32;20162;-70
2022/03/08 08:31:33;;;;;;;19.97;11.43;;;0.60;99.90;;;;;;4426194;32;20188;-72
2022/03/08 08:34:00;;;;;;;25.60;13.20;;;0.60;99.90;;;;;;4441619;32;20201;-73
2022/03/08 08:36:27;;;;;;;25.57;13.43;;;0.60;99.90;;;;;;4427268;32;20555;-72
2022/03/08 08:38:53;;;;;;;24.13;13.30;;;0.60;99.90;;;;;;4427626;32;20257;-72
2022/03/08 08:41:20;;;;;;;25.80;13.70;;;0.60;99.90;;;;;;4427392;32;20217;-72
2022/03/08 08:43:47;;;;;;;22.10;11.67;;;0.50;99.90;;;;;;4417483;32;20235;-72
2022/03/08 08:46:14;;;;;;;18.33;10.27;;;0.50;99.90;;;;;;4426055;32;20175;-74
2022/03/08 08:48:41;;;;;;;19.80;10.07;;;0.40;99.90;;;;;;4411141;32;20166;-72
2022/03/08 08:51:08;;;;;;;20.07;10.93;;;0.40;99.90;;;;;;4412423;32;20456;-71
2022/03/08 08:53:35;;;;;;;22.13;11.13;;;0.50;99.90;;;;;;4411667;32;20186;-71
2022/03/08 08:56:02;;;;;;;25.57;11.33;;;0.50;99.90;;;;;;4411856;32;20186;-73
2022/03/08 08:58:29;;;;;;;27.50;13.37;;;0.60;99.90;;;;;;4410784;32;20205;-71
2022/03/08 09:00:56;;;;;;;28.07;13.97;;;0.70;99.90;;;;;;4410083;32;20174;-73
2022/03/08 09:03:23;;;;;;;24.97;13.00;;;0.70;99.90;;;;;;4410661;32;20204;-73
2022/03/08 09:05:50;;;;;;;25.73;13.17;;;0.80;99.90;;;;;;4410518;32;20209;-71
2022/03/08 09:08:24;;;;;;;22.93;12.77;;;0.80;99.90;;;;;;4425140;32;20170;-72
2022/03/08 09:10:55;;;;;;;24.63;12.90;;;0.80;99.90;;;;;;4409479;32;20171;-75
2022/03/08 09:13:24;;;;;;;27.83;13.40;;;0.90;99.90;;;;;;4416300;32;20380;-74
2022/03/08 09:15:51;;;;;;;24.87;13.10;;;0.90;99.90;;;;;;4426824;32;20170;-73
2022/03/08 09:18:18;;;;;;;28.73;14.33;;;1.10;99.90;;;;;;4413363;32;20178;-73
2022/03/08 09:20:45;;;;;;;35.73;16.77;;;1.10;99.90;;;;;;4439261;32;20146;-72
2022/03/08 09:23:13;;;;;;;33.53;16.10;;;1.00;99.90;;;;;;4425015;32;20205;-72
2022/03/08 09:25:40;;;;;;;32.43;16.47;;;1.10;99.90;;;;;;4425213;32;20230;-73
2022/03/08 09:28:07;;;;;;;29.00;14.97;;;1.10;99.90;;;;;;4438967;32;20192;-71
2022/03/08 09:30:35;;;;;;;27.17;13.87;;;1.20;99.90;;;;;;4425527;32;20166;-72
2022/03/08 09:33:03;;;;;;;27.03;14.27;;;1.30;99.90;;;;;;4424527;32;20174;-72
2022/03/08 09:35:31;;;;;;;24.53;12.67;;;1.50;99.90;;;;;;4440047;32;20181;-71
2022/03/08 09:37:58;;;;;;;26.73;12.50;;;1.60;99.90;;;;;;4425040;32;20564;-71
2022/03/08 09:40:25;;;;;;;22.57;12.03;;;1.70;99.90;;;;;;4424793;32;20198;-73
2022/03/08 09:42:52;;;;;;;23.33;13.27;;;1.80;99.90;;;;;;4421865;32;20174;-72
2022/03/08 09:45:19;;;;;;;21.10;12.40;;;1.90;99.90;;;;;;4409789;32;20170;-72
2022/03/08 09:47:47;;;;;;;29.13;14.27;;;2.00;99.90;;;;;;4409819;32;20175;-72
2022/03/08 09:50:15;;;;;;;23.50;13.07;;;2.10;99.90;;;;;;4409964;32;20464;-71
2022/03/08 09:52:46;;;;;;;16.80;9.87;;;2.20;99.90;;;;;;4424210;32;20200;-71
2022/03/08 09:55:15;;;;;;;13.90;9.43;;;2.30;99.90;;;;;;4425343;32;20151;-70
2022/03/08 09:57:43;;;;;;;16.37;9.47;;;1.90;99.90;;;;;;4409349;32;20175;-71
2022/03/08 10:00:11;;;;;;;15.87;9.37;;;1.90;99.90;;;;;;4410117;32;20179;-73
2022/03/08 10:02:55;;;;;;;25.20;13.23;;;2.10;99.90;;;;;;4409724;32;20626;-71
2022/03/08 10:05:37;;;;;;;27.17;14.43;;;2.30;99.90;;;;;;4410131;32;20579;-71
2022/03/08 10:08:10;;;;;;;27.23;14.33;;;2.40;99.90;;;;;;4423856;32;20427;-70
2022/03/08 10:10:46;;;;;;;29.97;15.47;;;2.40;99.90;;;;;;4409727;32;20221;-69
2022/03/08 10:13:24;;;;;;;27.27;14.90;;;2.40;99.90;;;;;;4408883;32;20202;-72
2022/03/08 10:16:10;;;;;;;28.27;14.93;;;2.50;99.90;;;;;;4409526;32;20210;-71
2022/03/08 10:18:41;;;;;;;28.77;14.90;;;2.60;99.90;;;;;;4409898;32;20449;-69
2022/03/08 10:21:34;;;;;;;27.40;14.93;;;2.80;99.90;;;;;;4410039;32;20207;-70
2022/03/08 10:24:13;;;;;;;27.13;14.23;;;2.90;99.90;;;;;;4411242;32;20174;-69
2022/03/08 10:26:55;;;;;;;22.03;12.53;;;2.90;99.90;;;;;;4409540;32;20216;-70
2022/03/08 10:29:24;;;;;;;22.53;12.37;;;2.90;99.90;;;;;;4409122;32;20433;-70
2022/03/08 10:32:20;;;;;;;21.43;12.57;;;2.80;99.90;;;;;;4409551;32;20186;-72
2022/03/08 10:34:51;;;;;;;19.50;11.40;;;2.90;99.90;;;;;;4409699;32;20183;-71
2022/03/08 10:37:20;;;;;;;23.33;11.47;;;3.00;99.90;;;;;;4409210;32;20233;-71
2022/03/08 10:39:49;;;;;;;19.87;11.53;;;3.10;99.90;;;;;;4410810;32;20190;-71
2022/03/08 10:42:20;;;;;;;14.17;8.90;;;3.20;99.90;;;;;;4423647;32;20188;-71
2022/03/08 10:44:48;;;;;;;14.07;8.80;;;3.20;99.90;;;;;;4421297;32;20462;-68
2022/03/08 10:47:16;;;;;;;14.50;8.87;;;3.10;99.90;;;;;;4439428;32;20163;-70
2022/03/08 10:49:52;;;;;;;14.00;8.83;;;3.20;99.90;;;;;;4439207;32;20143;-71
2022/03/08 10:52:36;;;;;;;14.43;9.17;;;3.40;99.90;;;;;;4424191;32;20190;-72
2022/03/08 10:55:20;;;;;;;13.07;9.03;;;3.70;99.90;;;;;;4426701;32;20183;-72
2022/03/08 10:57:54;;;;;;;13.97;8.37;;;3.90;99.90;;;;;;4428350;32;20189;-70
2022/03/08 11:00:31;;;;;;;11.77;8.40;;;4.00;99.90;;;;;;4427874;32;20200;-71
2022/03/08 11:03:02;;;;;;;11.70;7.20;;;4.10;99.90;;;;;;4427323;32;20260;-72
2022/03/08 11:05:33;;;;;;;10.47;7.23;;;4.20;99.90;;;;;;4428304;32;20174;-73
2022/03/08 11:08:01;;;;;;;10.00;6.30;;;4.30;99.90;;;;;;4428947;32;20237;-69
2022/03/08 11:10:29;;;;;;;12.07;6.40;;;4.30;99.90;;;;;;4427089;32;20221;-71
2022/03/08 11:12:57;;;;;;;9.70;6.37;;;4.20;99.90;;;;;;4426984;32;20198;-70
2022/03/08 11:15:25;;;;;;;9.50;6.00;;;4.30;99.90;;;;;;4417370;32;20167;-73
2022/03/08 11:17:54;;;;;;;12.53;6.20;;;4.50;99.90;;;;;;4426423;32;20413;-73
2022/03/08 11:20:23;;;;;;;13.10;8.10;;;4.40;99.90;;;;;;4411639;32;20520;-74
2022/03/08 11:22:52;;;;;;;15.90;7.93;;;4.20;99.90;;;;;;4413343;32;20183;-73
2022/03/08 11:25:19;;;;;;;15.97;8.03;;;4.40;99.90;;;;;;4410718;32;20291;-73
2022/03/08 11:28:07;;;;;;;12.87;7.90;;;4.20;99.90;;;;;;4424723;32;20190;-73
2022/03/08 11:30:40;;;;;;;10.70;7.80;;;4.30;99.90;;;;;;4428000;32;20198;-74
2022/03/08 11:33:35;;;;;;;11.27;6.97;;;4.40;99.90;;;;;;4426728;32;20159;-72
2022/03/08 11:36:22;;;;;;;9.63;5.73;;;4.60;99.90;;;;;;4424744;32;20249;-72
2022/03/08 11:39:16;;;;;;;8.20;5.40;;;5.30;99.90;;;;;;4424856;32;20209;-72
2022/03/08 11:41:46;;;;;;;7.13;4.47;;;5.90;99.90;;;;;;4425189;32;20204;-71
2022/03/08 11:44:25;;;;;;;5.27;4.57;;;6.10;99.90;;;;;;4424593;32;20556;-71
2022/03/08 11:47:14;;;;;;;6.80;4.27;;;6.70;99.90;;;;;;4427026;32;20184;-71
2022/03/08 11:49:44;;;;;;;6.23;3.73;;;7.60;99.90;;;;;;4427119;32;20207;-69
2022/03/08 11:52:12;;;;;;;5.93;3.67;;;7.50;99.90;;;;;;4426860;32;20189;-74
2022/03/08 11:54:39;;;;;;;9.77;3.60;;;8.40;99.90;;;;;;4441534;32;20166;-70
2022/03/08 11:57:06;;;;;;;8.07;3.47;;;8.60;99.90;;;;;;4427040;32;20450;-73
2022/03/08 11:59:33;;;;;;;4.27;3.10;;;9.10;99.90;;;;;;4426591;32;20554;-71
2022/03/08 12:02:02;;;;;;;8.17;3.50;;;10.00;99.90;;;;;;4426799;32;20184;-70
2022/03/08 12:04:44;;;;;;;4.37;3.10;;;10.30;95.50;;;;;;4427388;32;20174;-72
2022/03/08 12:07:25;;;;;;;5.20;3.00;;;11.40;90.30;;;;;;4427564;32;20174;-71
2022/03/08 12:10:27;;;;;;;3.77;3.30;;;11.70;83.90;;;;;;4427362;32;20186;-71
2022/03/08 12:13:13;;;;;;;4.97;3.43;;;12.00;80.90;;;;;;4408820;32;20175;-72
2022/03/08 12:16:11;;;;;;;5.13;3.20;;;13.10;73.20;;;;;;4409946;32;20171;-71
2022/03/08 12:18:52;;;;;;;4.37;3.00;;;13.40;69.30;;;;;;4410315;32;20269;-71
2022/03/08 12:21:32;;;;;;;4.43;3.30;;;15.20;66.90;;;;;;4410188;32;20469;-71
2022/03/08 12:24:12;;;;;;;5.73;3.83;;;15.40;59.90;;;;;;4410222;32;20499;-70
2022/03/08 12:26:51;;;;;;;4.67;3.57;;;15.20;59.90;;;;;;4408471;32;20179;-71
2022/03/08 12:29:55;;;;;;;7.87;3.83;;;15.70;57.80;;;;;;4408912;32;20178;-69
2022/03/08 12:32:25;;;;;;;5.90;3.10;;;16.10;55.30;;;;;;4409218;32;20548;-68
2022/03/08 12:34:58;;;;;;;5.83;3.80;;;15.80;54.80;;;;;;4408704;32;20179;-69
2022/03/08 12:37:35;;;;;;;7.07;3.50;;;16.40;54.70;;;;;;4410309;32;20181;-70
2022/03/08 12:40:21;;;;;;;5.57;3.30;;;17.50;52.60;;;;;;4408322;32;20213;-72
2022/03/08 12:43:00;;;;;;;5.17;3.30;;;17.20;51.50;;;;;;4408257;32;20191;-71
2022/03/08 12:45:27;;;;;;;4.90;3.40;;;17.30;50.50;;;;;;4408548;32;20533;-73
2022/03/08 12:48:12;;;;;;;4.63;3.10;;;18.10;49.40;;;;;;4408142;32;20533;-73
2022/03/08 12:50:44;;;;;;;4.17;2.67;;;18.40;47.60;;;;;;4408195;32;20269;-72